createdAt,value
2017-11-29T00:01:13.180Z,91.60
2017-11-29T00:03:40.650Z,91.60
2017-11-29T00:06:08.256Z,92.50
2017-11-29T00:08:36.017Z,92.80
2017-11-29T00:11:03.489Z,92.20
2017-11-29T00:13:30.964Z,92.50
2017-11-29T00:15:59.197Z,92.90
2017-11-29T00:18:26.686Z,92.80
2017-11-29T00:20:54.816Z,92.40
2017-11-29T00:23:22.288Z,92.60
2017-11-29T00:25:49.773Z,92.80
2017-11-29T00:28:17.243Z,92.90
2017-11-29T00:30:45.489Z,93.10
2017-11-29T00:33:12.951Z,93.10
2017-11-29T00:35:40.433Z,93.00
2017-11-29T00:38:08.669Z,93.40
2017-11-29T00:40:36.132Z,93.30
2017-11-29T00:43:03.617Z,93.20
2017-11-29T00:45:31.092Z,93.40
2017-11-29T00:47:59.521Z,93.60
2017-11-29T00:50:26.991Z,93.60
2017-11-29T00:52:54.485Z,94.00
2017-11-29T00:55:22.719Z,93.60
2017-11-29T00:57:50.188Z,93.60
2017-11-29T01:00:17.665Z,93.80
2017-11-29T01:02:45.927Z,94.30
2017-11-29T01:05:13.408Z,94.30
2017-11-29T01:07:41.641Z,93.90
2017-11-29T01:10:09.137Z,93.90
2017-11-29T01:12:37.368Z,94.50
2017-11-29T01:15:04.845Z,94.20
2017-11-29T01:17:32.328Z,94.20
2017-11-29T01:20:00.581Z,94.20
2017-11-29T01:22:28.058Z,94.20
2017-11-29T01:24:55.527Z,94.30
2017-11-29T01:27:23.785Z,94.80
2017-11-29T01:29:51.266Z,94.80
2017-11-29T01:32:19.504Z,94.90
2017-11-29T01:34:47.304Z,94.90
2017-11-29T01:37:15.549Z,95.10
2017-11-29T01:39:43.048Z,95.00
2017-11-29T01:42:10.605Z,95.10
2017-11-29T01:44:38.860Z,94.70
2017-11-29T01:47:06.323Z,94.70
2017-11-29T01:49:34.565Z,95.10
2017-11-29T01:52:02.051Z,94.80
2017-11-29T01:54:29.544Z,94.80
2017-11-29T01:56:57.034Z,95.20
2017-11-29T01:59:24.504Z,95.20
2017-11-29T02:01:51.988Z,95.40
2017-11-29T02:04:20.226Z,95.30
2017-11-29T02:06:47.724Z,95.20
2017-11-29T02:09:15.993Z,94.60
2017-11-29T02:11:43.461Z,94.60
2017-11-29T02:14:11.734Z,94.70
2017-11-29T02:16:39.196Z,94.40
2017-11-29T02:19:07.482Z,94.40
2017-11-29T02:21:35.723Z,94.40
2017-11-29T02:24:03.189Z,94.40
2017-11-29T02:26:30.767Z,94.40
2017-11-29T02:28:59.042Z,94.50
2017-11-29T02:31:27.315Z,94.70
2017-11-29T02:33:55.560Z,94.80
2017-11-29T02:36:23.054Z,94.50
2017-11-29T02:38:51.291Z,94.60
2017-11-29T02:41:30.821Z,94.60
2017-11-29T02:43:58.293Z,94.90
2017-11-29T02:46:25.762Z,94.60
2017-11-29T02:48:53.248Z,94.50
2017-11-29T02:51:21.510Z,94.70
2017-11-29T02:53:48.994Z,94.60
2017-11-29T02:56:17.227Z,94.70
2017-11-29T02:58:44.716Z,94.70
2017-11-29T03:01:12.953Z,94.80
2017-11-29T03:03:40.426Z,94.80
2017-11-29T03:06:07.920Z,95.00
2017-11-29T03:08:36.183Z,95.00
2017-11-29T03:11:04.489Z,95.20
2017-11-29T03:13:31.962Z,95.10
2017-11-29T10:29:32.313Z,94.90
2017-11-29T10:31:59.792Z,82.00
2017-11-29T10:34:28.977Z,80.60
2017-11-29T10:36:56.606Z,80.60
2017-11-29T10:39:24.081Z,82.60
2017-11-29T10:41:51.561Z,81.80
2017-11-29T10:44:19.837Z,77.40
2017-11-29T10:46:47.363Z,77.30
2017-11-29T10:49:14.856Z,78.90
2017-11-29T10:51:42.319Z,78.90
2017-11-29T10:54:09.832Z,78.90
2017-11-29T10:56:37.310Z,78.50
2017-11-29T10:59:04.779Z,79.00
2017-11-29T11:01:32.272Z,79.30
2017-11-29T11:04:03.609Z,79.80
2017-11-29T11:06:31.117Z,79.80
2017-11-29T11:08:58.584Z,80.50
2017-11-29T11:11:26.088Z,78.20
2017-11-29T11:13:54.753Z,79.50
2017-11-29T11:16:22.985Z,78.20
2017-11-29T11:18:50.492Z,78.20
2017-11-29T11:21:17.988Z,79.60
2017-11-29T11:23:45.530Z,79.50
2017-11-29T11:26:13.768Z,80.40
2017-11-29T11:28:41.266Z,80.40
2017-11-29T11:31:09.516Z,78.40
2017-11-29T11:33:36.988Z,78.40
2017-11-29T11:36:04.481Z,77.00
2017-11-29T11:38:31.960Z,75.50
2017-11-29T11:43:53.726Z,75.40
2017-11-29T11:46:21.981Z,77.50
2017-11-29T11:48:49.466Z,77.60
2017-11-29T11:51:17.006Z,77.00
2017-11-29T11:53:45.244Z,74.00
2017-11-29T11:56:12.721Z,74.00
2017-11-29T11:58:40.204Z,73.90
2017-11-29T12:01:08.469Z,75.60
2017-11-29T12:03:36.059Z,75.60
2017-11-29T12:06:03.549Z,77.20
2017-11-29T12:08:31.057Z,74.30
2017-11-29T12:10:59.288Z,74.80
2017-11-29T12:13:26.765Z,74.70
2017-11-29T12:15:54.248Z,74.70
2017-11-29T12:18:22.483Z,70.70
2017-11-29T12:20:49.986Z,70.70
2017-11-29T12:23:17.499Z,70.40
2017-11-29T12:25:44.978Z,71.50
2017-11-29T12:28:12.461Z,71.30
2017-11-29T12:30:40.728Z,73.80
2017-11-29T12:33:08.984Z,72.90
2017-11-29T12:35:36.576Z,72.90
2017-11-29T12:38:04.830Z,70.00
2017-11-29T12:40:32.297Z,69.90
2017-11-29T12:42:59.860Z,70.70
2017-11-29T12:45:28.097Z,71.40
2017-11-29T12:47:55.583Z,71.40
2017-11-29T12:50:34.977Z,71.70
2017-11-29T12:53:02.495Z,72.40
2017-11-29T12:55:30.729Z,73.70
2017-11-29T12:57:58.237Z,73.50
2017-11-29T13:00:26.478Z,74.30
2017-11-29T13:02:53.956Z,74.30
2017-11-29T13:05:21.444Z,75.20
2017-11-29T13:07:48.962Z,75.50
2017-11-29T13:10:16.444Z,77.00
2017-11-29T13:12:44.681Z,74.10
2017-11-29T13:15:12.172Z,74.10
2017-11-29T13:17:40.425Z,72.50
2017-11-29T13:20:07.947Z,72.50
2017-11-29T13:22:35.413Z,73.90
2017-11-29T13:25:02.889Z,73.60
2017-11-29T13:27:30.404Z,74.40
2017-11-29T13:29:57.890Z,75.50
2017-11-29T13:32:25.373Z,75.40
2017-11-29T13:34:52.840Z,76.60
2017-11-29T13:37:20.332Z,76.90
2017-11-29T13:39:47.805Z,78.10
2017-11-29T13:42:15.368Z,78.20
2017-11-29T13:44:42.833Z,78.00
2017-11-29T13:47:10.301Z,77.80
2017-11-29T13:49:37.785Z,78.20
2017-11-29T13:52:05.256Z,78.40
2017-11-29T13:54:32.736Z,78.00
2017-11-29T13:57:00.968Z,79.30
2017-11-29T13:59:28.468Z,78.50
2017-11-29T14:01:56.717Z,79.50
2017-11-29T14:04:24.213Z,79.50
2017-11-29T14:06:51.702Z,79.80
2017-11-29T14:09:19.169Z,81.00
2017-11-29T14:11:46.656Z,81.10
2017-11-29T14:14:14.124Z,80.80
2017-11-29T14:16:42.392Z,80.50
2017-11-29T14:19:09.867Z,80.50
2017-11-29T14:21:38.117Z,81.80
2017-11-29T14:24:05.584Z,81.70
2017-11-29T14:26:33.121Z,79.20
2017-11-29T14:29:00.589Z,77.90
2017-11-29T14:31:29.564Z,78.00
2017-11-29T14:33:57.070Z,77.90
2017-11-29T14:36:25.301Z,77.80
2017-11-29T14:38:52.789Z,77.80
2017-11-29T14:41:20.255Z,78.30
2017-11-29T14:43:48.553Z,79.70
2017-11-29T14:46:16.088Z,79.70
2017-11-29T14:48:44.344Z,81.10
2017-11-29T14:51:11.820Z,81.10
2017-11-29T14:53:41.011Z,81.80
2017-11-29T14:56:08.497Z,81.80
2017-11-29T14:58:35.979Z,80.50
2017-11-29T15:01:04.251Z,81.90
2017-11-29T15:03:31.734Z,81.90
2017-11-29T15:05:59.239Z,83.00
2017-11-29T15:08:27.501Z,82.80
2017-11-29T15:10:54.972Z,82.70
2017-11-29T15:13:23.240Z,82.50
2017-11-29T15:15:51.500Z,83.40
2017-11-29T15:18:18.985Z,83.20
2017-11-29T15:20:47.293Z,83.20
2017-11-29T15:23:14.783Z,83.10
2017-11-29T15:25:43.128Z,83.80
2017-11-29T15:28:10.595Z,83.80
2017-11-29T15:30:38.089Z,82.60
2017-11-29T15:33:05.572Z,82.90
2017-11-29T15:35:33.823Z,82.70
2017-11-29T15:38:01.295Z,82.70
2017-11-29T15:40:29.565Z,82.30
2017-11-29T15:44:49.768Z,82.80
2017-11-29T15:47:17.256Z,83.60
2017-11-29T15:49:44.737Z,83.90
2017-11-29T15:52:12.220Z,83.50
2017-11-29T15:54:39.692Z,83.80
2017-11-29T15:57:07.184Z,84.40
2017-11-29T15:59:35.448Z,85.40
2017-11-29T16:02:03.693Z,85.00
2017-11-29T16:04:31.499Z,85.00
2017-11-29T16:06:59.004Z,85.40
2017-11-29T16:09:26.489Z,85.80
2017-11-29T16:11:54.083Z,85.70
2017-11-29T16:14:21.820Z,86.00
2017-11-29T16:16:49.300Z,86.50
2017-11-29T16:19:17.541Z,86.70
2017-11-29T16:21:45.029Z,86.80
2017-11-29T16:24:13.261Z,86.70
2017-11-29T16:26:40.791Z,86.70
2017-11-29T16:29:08.274Z,87.30
2017-11-29T16:31:35.756Z,87.50
2017-11-29T16:34:03.273Z,87.90
2017-11-29T16:36:30.746Z,88.10
2017-11-29T16:38:58.255Z,88.30
2017-11-29T16:41:26.623Z,88.20
2017-11-29T16:43:54.868Z,88.70
2017-11-29T16:46:22.344Z,88.70
2017-11-29T16:48:49.860Z,88.90
2017-11-29T16:51:17.325Z,88.90
2017-11-29T16:53:44.831Z,89.10
2017-11-29T16:56:12.308Z,89.70
2017-11-29T16:58:40.551Z,90.10
2017-11-29T17:01:08.045Z,90.10
2017-11-29T17:03:36.297Z,90.30
2017-11-29T17:06:04.609Z,90.40
2017-11-29T17:08:32.148Z,90.30
2017-11-29T17:11:00.424Z,90.60
2017-11-29T17:13:28.692Z,90.60
2017-11-29T17:15:56.189Z,90.60
2017-11-29T17:18:23.692Z,90.90
2017-11-29T17:20:51.176Z,91.00
2017-11-29T17:23:19.681Z,90.90
2017-11-29T17:25:47.160Z,91.00
2017-11-29T17:28:14.652Z,91.10
2017-11-29T17:30:42.132Z,91.10
2017-11-29T17:33:10.390Z,91.30
2017-11-29T17:35:37.896Z,91.30
2017-11-29T17:38:05.426Z,91.40
2017-11-29T17:40:33.698Z,91.30
2017-11-29T17:43:01.953Z,91.60
2017-11-29T17:45:29.580Z,91.30
2017-11-29T17:47:57.080Z,91.20
2017-11-29T17:50:24.597Z,91.20
2017-11-29T17:52:52.152Z,91.40
2017-11-29T17:55:19.641Z,91.40
2017-11-29T17:57:47.890Z,91.50
2017-11-29T18:00:15.405Z,91.40
2017-11-29T18:02:42.879Z,91.40
2017-11-29T18:05:11.120Z,91.80
2017-11-29T18:07:38.604Z,91.80
2017-11-29T18:10:06.851Z,91.60
2017-11-29T18:12:34.353Z,91.60
2017-11-29T18:15:02.601Z,91.80
2017-11-29T18:17:30.875Z,91.80
2017-11-29T18:20:00.181Z,91.80
2017-11-29T18:22:27.719Z,91.70
2017-11-29T18:24:55.212Z,91.90
2017-11-29T18:27:23.457Z,91.50
2017-11-29T18:29:50.945Z,91.50
2017-11-29T18:32:19.203Z,91.50
2017-11-29T18:34:46.797Z,91.50
2017-11-29T18:37:15.046Z,91.60
2017-11-29T18:39:42.541Z,91.60
2017-11-29T18:42:10.025Z,91.40
2017-11-29T18:44:37.515Z,91.80
2017-11-29T18:47:05.009Z,91.80
2017-11-29T18:49:32.505Z,91.50
2017-11-29T18:52:00.001Z,91.80
2017-11-29T18:54:28.255Z,91.70
2017-11-29T18:56:55.753Z,91.70
2017-11-29T18:59:23.997Z,91.70
2017-11-29T19:01:51.481Z,91.70
2017-11-29T19:04:19.747Z,91.80
2017-11-29T19:06:47.981Z,91.70
2017-11-29T19:09:15.475Z,91.40
2017-11-29T19:11:42.949Z,91.40
2017-11-29T19:14:11.203Z,91.40
2017-11-29T19:16:38.685Z,91.40
2017-11-29T19:19:07.228Z,91.20
2017-11-29T19:21:34.697Z,91.20
2017-11-29T19:24:02.284Z,91.00
2017-11-29T19:26:30.532Z,91.10
2017-11-29T19:28:58.015Z,91.00
2017-11-29T19:31:26.285Z,91.10
2017-11-29T19:33:53.790Z,91.10
2017-11-29T19:36:21.284Z,91.10
2017-11-29T19:38:48.767Z,91.20
2017-11-29T19:41:17.049Z,91.50
2017-11-29T19:43:45.360Z,91.50
2017-11-29T19:46:12.844Z,91.50
2017-11-29T19:48:40.344Z,91.60
2017-11-29T19:51:07.860Z,91.80
2017-11-29T19:53:35.349Z,91.70
2017-11-29T19:56:02.820Z,92.00
2017-11-29T19:58:31.065Z,92.00
2017-11-29T20:00:58.540Z,91.90
2017-11-29T20:03:26.040Z,92.10
2017-11-29T20:05:53.522Z,92.20
2017-11-29T20:08:21.004Z,92.10
2017-11-29T20:10:48.519Z,92.10
2017-11-29T20:13:16.001Z,92.10
2017-11-29T20:15:43.489Z,92.20
2017-11-29T20:18:11.300Z,92.20
2017-11-29T20:20:38.825Z,92.40
2017-11-29T20:23:07.086Z,92.40
2017-11-29T20:25:34.925Z,92.40
2017-11-29T20:28:02.476Z,92.60
2017-11-29T20:30:30.105Z,92.60
2017-11-29T20:32:57.596Z,92.50
2017-11-29T20:35:25.205Z,92.50
2017-11-29T20:37:54.506Z,92.50
2017-11-29T20:40:22.842Z,92.60
2017-11-29T20:42:50.400Z,92.60
2017-11-29T20:45:17.876Z,92.80
2017-11-29T20:47:45.413Z,92.80
2017-11-29T20:50:13.037Z,92.90
2017-11-29T20:52:53.129Z,92.90
2017-11-29T20:55:21.009Z,93.20
2017-11-29T20:57:48.868Z,93.10
2017-11-29T21:00:16.369Z,93.10
2017-11-29T21:02:44.186Z,93.00
2017-11-29T21:05:11.963Z,93.10
2017-11-29T21:07:41.474Z,93.10
2017-11-29T21:10:09.028Z,93.20
2017-11-29T21:12:36.563Z,93.20
2017-11-29T21:15:05.280Z,93.30
2017-11-29T21:17:33.345Z,93.50
2017-11-29T21:20:00.887Z,93.80
2017-11-29T21:22:28.873Z,93.60
2017-11-29T21:24:56.670Z,93.60
2017-11-29T21:27:24.410Z,93.70
2017-11-29T21:29:53.668Z,93.60
2017-11-29T21:32:21.327Z,93.70
2017-11-29T21:34:48.827Z,93.70
2017-11-29T21:37:16.432Z,93.70
2017-11-29T21:39:44.847Z,93.70
2017-11-29T21:42:12.635Z,93.70
2017-11-29T21:44:40.224Z,93.70
2017-11-29T21:47:07.785Z,93.70
2017-11-29T21:49:36.879Z,93.70
2017-11-29T21:52:04.364Z,93.70
2017-11-29T21:54:31.865Z,93.80
2017-11-29T21:56:59.742Z,93.90
2017-11-29T21:59:27.243Z,93.90
2017-11-29T22:01:55.973Z,94.00
2017-11-29T22:04:23.680Z,94.00
2017-11-29T22:06:52.037Z,94.20
2017-11-29T22:09:19.541Z,94.20
2017-11-29T22:11:47.990Z,94.50
2017-11-29T22:14:15.530Z,94.20
2017-11-29T22:16:43.024Z,94.30
2017-11-29T22:19:11.313Z,94.40
2017-11-29T22:21:38.838Z,94.30
2017-11-29T22:24:06.332Z,94.50
2017-11-29T22:26:35.161Z,94.60
2017-11-29T22:29:02.698Z,94.60
2017-11-29T22:31:30.176Z,94.60
2017-11-29T22:33:57.693Z,94.60
2017-11-29T22:36:25.321Z,94.80
2017-11-29T22:38:52.796Z,94.80
2017-11-29T22:41:20.444Z,94.80
2017-11-29T22:43:48.726Z,94.50
2017-11-29T22:46:16.228Z,94.50
2017-11-29T22:48:43.958Z,94.70
2017-11-29T22:51:12.052Z,94.70
2017-11-29T22:53:39.545Z,94.80
2017-11-29T22:56:07.590Z,94.80
2017-11-29T22:58:36.034Z,94.70
2017-11-29T23:01:03.548Z,94.70
2017-11-29T23:03:31.129Z,94.80
2017-11-29T23:05:58.869Z,94.80
2017-11-29T23:10:18.016Z,94.90
2017-11-29T23:12:46.626Z,94.90
2017-11-29T23:15:14.535Z,94.80
2017-11-29T23:17:42.013Z,94.70
2017-11-29T23:20:09.862Z,94.70
2017-11-29T23:22:37.713Z,94.80
2017-11-29T23:25:05.204Z,94.60
2017-11-29T23:27:32.683Z,94.60
2017-11-29T23:30:00.196Z,94.60
2017-11-29T23:32:27.856Z,94.70
2017-11-29T23:34:55.359Z,94.70
2017-11-29T23:37:23.604Z,94.70
2017-11-29T23:39:51.092Z,94.70
2017-11-29T23:42:19.365Z,94.50
2017-11-29T23:44:47.807Z,94.50
2017-11-29T23:47:15.412Z,94.50
2017-11-29T23:49:43.658Z,94.60
2017-11-29T23:52:11.157Z,94.60
2017-11-29T23:54:38.666Z,94.90
2017-11-29T23:57:06.313Z,94.80
2017-11-29T23:59:33.804Z,94.50
